sensor_id;sensor_type;location;lat;lon;timestamp;pressure;altitude;pressure_sealevel;temperature;humidity
21879;BME280;27908;42.708;23.278;2023-04-25T00:00:47;63819.41;;;11.50;100.00
21879;BME280;27908;42.708;23.278;2023-04-25T00:03:12;63803.63;;;11.57;100.00
21879;BME280;27908;42.708;23.278;2023-04-25T00:05:38;63829.19;;;11.60;100.00
21879;BME280;27908;42.708;23.278;2023-04-25T00:08:04;63797.44;;;11.49;100.00
21879;BME280;27908;42.708;23.278;2023-04-25T00:10:30;63783.06;;;11.42;100.00
21879;BME280;27908;42.708;23.278;2023-04-25T00:12:56;63779.53;;;11.44;100.00
21879;BME280;27908;42.708;23.278;2023-04-25T00:15:22;63829.44;;;11.38;100.00
21879;BME280;27908;42.708;23.278;2023-04-25T00:17:49;63809.66;;;11.46;100.00
21879;BME280;27908;42.708;23.278;2023-04-25T00:20:14;63771.78;;;11.39;100.00
21879;BME280;27908;42.708;23.278;2023-04-25T00:22:40;63796.84;;;11.43;100.00
21879;BME280;27908;42.708;23.278;2023-04-25T00:25:06;63786.59;;;11.41;100.00
21879;BME280;27908;42.708;23.278;2023-04-25T00:27:32;63801.97;;;11.43;100.00
21879;BME280;27908;42.708;23.278;2023-04-25T00:29:57;63776.44;;;11.43;100.00
21879;BME280;27908;42.708;23.278;2023-04-25T00:32:23;63756.44;;;11.34;100.00
21879;BME280;27908;42.708;23.278;2023-04-25T00:34:48;63706.06;;;10.96;100.00
21879;BME280;27908;42.708;23.278;2023-04-25T00:37:14;63740.41;;;11.11;100.00
21879;BME280;27908;42.708;23.278;2023-04-25T00:39:39;63756.16;;;11.07;100.00
21879;BME280;27908;42.708;23.278;2023-04-25T00:42:05;63728.63;;;11.07;100.00
21879;BME280;27908;42.708;23.278;2023-04-25T00:44:31;63723.59;;;11.15;100.00
21879;BME280;27908;42.708;23.278;2023-04-25T00:46:57;63752.09;;;11.08;100.00
21879;BME280;27908;42.708;23.278;2023-04-25T00:49:23;63713.72;;;10.98;100.00
21879;BME280;27908;42.708;23.278;2023-04-25T00:51:48;63753.28;;;11.26;100.00
21879;BME280;27908;42.708;23.278;2023-04-25T00:54:14;63742.00;;;11.18;100.00
21879;BME280;27908;42.708;23.278;2023-04-25T00:56:41;63736.00;;;11.32;100.00
21879;BME280;27908;42.708;23.278;2023-04-25T00:59:06;63795.78;;;11.40;100.00
21879;BME280;27908;42.708;23.278;2023-04-25T01:01:33;63740.56;;;11.29;100.00
21879;BME280;27908;42.708;23.278;2023-04-25T01:03:59;63770.19;;;11.33;100.00
21879;BME280;27908;42.708;23.278;2023-04-25T01:06:26;63734.44;;;11.28;100.00
21879;BME280;27908;42.708;23.278;2023-04-25T01:08:52;63752.69;;;11.16;100.00
21879;BME280;27908;42.708;23.278;2023-04-25T01:11:18;63801.66;;;11.16;100.00
21879;BME280;27908;42.708;23.278;2023-04-25T01:13:44;63749.66;;;11.18;100.00
21879;BME280;27908;42.708;23.278;2023-04-25T01:16:09;63703.63;;;11.08;100.00
21879;BME280;27908;42.708;23.278;2023-04-25T01:18:36;63689.53;;;10.75;100.00
21879;BME280;27908;42.708;23.278;2023-04-25T01:21:07;63719.59;;;10.74;100.00
21879;BME280;27908;42.708;23.278;2023-04-25T01:23:33;63675.22;;;10.71;100.00
21879;BME280;27908;42.708;23.278;2023-04-25T01:26:00;63666.47;;;10.63;100.00
21879;BME280;27908;42.708;23.278;2023-04-25T01:28:26;63684.94;;;10.73;100.00
21879;BME280;27908;42.708;23.278;2023-04-25T01:30:52;63650.19;;;10.64;100.00
21879;BME280;27908;42.708;23.278;2023-04-25T01:33:19;63673.69;;;10.72;100.00
21879;BME280;27908;42.708;23.278;2023-04-25T01:35:46;63639.00;;;10.68;100.00
21879;BME280;27908;42.708;23.278;2023-04-25T01:38:13;63587.25;;;10.38;100.00
21879;BME280;27908;42.708;23.278;2023-04-25T01:40:40;63638.28;;;10.48;100.00
21879;BME280;27908;42.708;23.278;2023-04-25T01:43:07;63634.53;;;10.29;100.00
21879;BME280;27908;42.708;23.278;2023-04-25T01:45:33;63659.59;;;10.39;100.00
21879;BME280;27908;42.708;23.278;2023-04-25T01:47:59;63642.66;;;10.25;100.00
21879;BME280;27908;42.708;23.278;2023-04-25T01:50:24;63660.44;;;10.20;100.00
21879;BME280;27908;42.708;23.278;2023-04-25T01:52:50;63617.66;;;10.21;100.00
21879;BME280;27908;42.708;23.278;2023-04-25T01:55:16;63665.16;;;10.34;100.00
21879;BME280;27908;42.708;23.278;2023-04-25T01:57:41;63655.03;;;10.39;100.00
21879;BME280;27908;42.708;23.278;2023-04-25T02:00:07;63683.06;;;10.42;100.00
21879;BME280;27908;42.708;23.278;2023-04-25T02:02:34;63662.72;;;10.44;100.00
21879;BME280;27908;42.708;23.278;2023-04-25T02:05:00;63644.44;;;10.49;100.00
21879;BME280;27908;42.708;23.278;2023-04-25T02:07:26;63647.44;;;10.44;100.00
21879;BME280;27908;42.708;23.278;2023-04-25T02:09:57;63676.56;;;10.53;100.00
21879;BME280;27908;42.708;23.278;2023-04-25T02:12:25;63696.41;;;10.52;100.00
21879;BME280;27908;42.708;23.278;2023-04-25T02:14:51;63690.41;;;10.59;100.00
21879;BME280;27908;42.708;23.278;2023-04-25T02:17:17;63673.06;;;10.59;100.00
21879;BME280;27908;42.708;23.278;2023-04-25T02:19:43;63716.41;;;10.62;100.00
21879;BME280;27908;42.708;23.278;2023-04-25T02:22:08;63652.44;;;10.34;100.00
21879;BME280;27908;42.708;23.278;2023-04-25T02:24:33;63670.28;;;10.37;100.00
21879;BME280;27908;42.708;23.278;2023-04-25T02:27:00;63657.44;;;10.27;100.00
21879;BME280;27908;42.708;23.278;2023-04-25T02:29:25;63612.97;;;10.11;100.00
21879;BME280;27908;42.708;23.278;2023-04-25T02:31:51;63561.78;;;9.89;100.00
21879;BME280;27908;42.708;23.278;2023-04-25T02:34:16;63644.84;;;9.95;100.00
21879;BME280;27908;42.708;23.278;2023-04-25T02:36:42;63597.22;;;9.69;100.00
21879;BME280;27908;42.708;23.278;2023-04-25T02:39:07;63583.41;;;9.63;100.00
21879;BME280;27908;42.708;23.278;2023-04-25T02:41:32;63643.44;;;9.62;100.00
21879;BME280;27908;42.708;23.278;2023-04-25T02:43:58;63539.03;;;9.53;100.00
21879;BME280;27908;42.708;23.278;2023-04-25T02:46:23;63548.66;;;9.50;100.00
21879;BME280;27908;42.708;23.278;2023-04-25T02:48:49;63558.38;;;9.54;100.00
21879;BME280;27908;42.708;23.278;2023-04-25T02:51:14;63567.00;;;9.53;100.00
21879;BME280;27908;42.708;23.278;2023-04-25T02:53:41;63531.59;;;9.23;100.00
21879;BME280;27908;42.708;23.278;2023-04-25T02:56:07;63520.84;;;9.18;100.00
21879;BME280;27908;42.708;23.278;2023-04-25T02:58:32;63475.53;;;9.11;100.00
21879;BME280;27908;42.708;23.278;2023-04-25T03:00:58;63504.59;;;9.20;100.00
21879;BME280;27908;42.708;23.278;2023-04-25T03:03:23;63499.41;;;9.12;100.00
21879;BME280;27908;42.708;23.278;2023-04-25T03:05:49;63443.91;;;9.03;100.00
21879;BME280;27908;42.708;23.278;2023-04-25T03:08:16;63462.72;;;9.01;100.00
21879;BME280;27908;42.708;23.278;2023-04-25T03:10:41;63461.19;;;9.02;100.00
21879;BME280;27908;42.708;23.278;2023-04-25T03:13:07;63443.78;;;8.90;100.00
21879;BME280;27908;42.708;23.278;2023-04-25T03:15:32;63462.19;;;8.98;100.00
21879;BME280;27908;42.708;23.278;2023-04-25T03:17:58;63515.63;;;9.08;100.00
21879;BME280;27908;42.708;23.278;2023-04-25T03:20:23;63514.81;;;9.24;100.00
21879;BME280;27908;42.708;23.278;2023-04-25T03:22:49;63512.31;;;9.27;100.00
21879;BME280;27908;42.708;23.278;2023-04-25T03:25:14;63509.59;;;9.12;100.00
21879;BME280;27908;42.708;23.278;2023-04-25T03:27:40;63541.41;;;9.38;100.00
21879;BME280;27908;42.708;23.278;2023-04-25T03:30:05;63570.97;;;9.44;100.00
21879;BME280;27908;42.708;23.278;2023-04-25T03:32:31;63531.25;;;9.40;100.00
21879;BME280;27908;42.708;23.278;2023-04-25T03:34:57;63531.84;;;9.48;100.00
21879;BME280;27908;42.708;23.278;2023-04-25T03:37:25;63534.38;;;9.46;100.00
21879;BME280;27908;42.708;23.278;2023-04-25T03:39:50;63524.25;;;9.51;100.00
21879;BME280;27908;42.708;23.278;2023-04-25T03:42:16;63518.59;;;9.45;100.00
21879;BME280;27908;42.708;23.278;2023-04-25T03:44:41;63557.69;;;9.39;100.00
21879;BME280;27908;42.708;23.278;2023-04-25T03:47:07;63554.69;;;9.43;100.00
21879;BME280;27908;42.708;23.278;2023-04-25T03:49:33;63612.94;;;9.65;100.00
21879;BME280;27908;42.708;23.278;2023-04-25T03:51:59;63584.03;;;9.74;100.00
21879;BME280;27908;42.708;23.278;2023-04-25T03:54:25;63584.94;;;9.65;100.00
21879;BME280;27908;42.708;23.278;2023-04-25T03:56:50;63601.34;;;9.73;100.00
21879;BME280;27908;42.708;23.278;2023-04-25T03:59:16;63578.50;;;9.81;100.00
21879;BME280;27908;42.708;23.278;2023-04-25T04:01:41;63572.50;;;9.90;100.00
21879;BME280;27908;42.708;23.278;2023-04-25T04:04:06;63580.66;;;9.90;100.00
21879;BME280;27908;42.708;23.278;2023-04-25T04:06:32;63630.66;;;9.99;100.00
21879;BME280;27908;42.708;23.278;2023-04-25T04:08:58;63626.25;;;10.14;100.00
21879;BME280;27908;42.708;23.278;2023-04-25T04:11:23;63640.06;;;10.23;100.00
21879;BME280;27908;42.708;23.278;2023-04-25T04:13:49;63622.75;;;10.21;100.00
21879;BME280;27908;42.708;23.278;2023-04-25T04:16:14;63690.16;;;10.36;100.00
21879;BME280;27908;42.708;23.278;2023-04-25T04:18:40;63687.22;;;10.48;100.00
21879;BME280;27908;42.708;23.278;2023-04-25T04:21:05;63637.19;;;10.39;100.00
21879;BME280;27908;42.708;23.278;2023-04-25T04:23:31;63651.00;;;10.43;100.00
21879;BME280;27908;42.708;23.278;2023-04-25T04:25:56;63714.91;;;10.65;100.00
21879;BME280;27908;42.708;23.278;2023-04-25T04:28:24;63742.47;;;10.67;100.00
21879;BME280;27908;42.708;23.278;2023-04-25T04:30:51;63717.66;;;10.82;100.00
21879;BME280;27908;42.708;23.278;2023-04-25T04:33:17;63729.91;;;10.84;100.00
21879;BME280;27908;42.708;23.278;2023-04-25T04:35:46;63745.19;;;10.84;100.00
21879;BME280;27908;42.708;23.278;2023-04-25T04:38:13;63705.19;;;10.61;100.00
21879;BME280;27908;42.708;23.278;2023-04-25T04:40:41;63696.41;;;10.50;100.00
21879;BME280;27908;42.708;23.278;2023-04-25T04:43:08;63721.63;;;10.74;100.00
21879;BME280;27908;42.708;23.278;2023-04-25T04:45:36;63754.88;;;10.84;100.00
21879;BME280;27908;42.708;23.278;2023-04-25T04:48:05;63748.69;;;10.75;100.00
21879;BME280;27908;42.708;23.278;2023-04-25T04:50:30;63692.13;;;10.77;100.00
21879;BME280;27908;42.708;23.278;2023-04-25T04:52:57;63754.34;;;10.81;100.00
21879;BME280;27908;42.708;23.278;2023-04-25T04:55:23;63683.38;;;10.69;100.00
21879;BME280;27908;42.708;23.278;2023-04-25T04:57:48;63697.19;;;10.75;100.00
21879;BME280;27908;42.708;23.278;2023-04-25T05:00:14;63691.03;;;10.71;100.00
21879;BME280;27908;42.708;23.278;2023-04-25T05:02:40;63698.56;;;10.62;100.00
21879;BME280;27908;42.708;23.278;2023-04-25T05:05:06;63732.94;;;10.82;100.00
21879;BME280;27908;42.708;23.278;2023-04-25T05:07:33;63731.91;;;10.79;100.00
21879;BME280;27908;42.708;23.278;2023-04-25T05:09:58;63704.16;;;10.60;100.00
21879;BME280;27908;42.708;23.278;2023-04-25T05:12:24;63717.16;;;10.84;100.00
21879;BME280;27908;42.708;23.278;2023-04-25T05:14:49;63691.50;;;10.67;100.00
21879;BME280;27908;42.708;23.278;2023-04-25T05:17:15;63753.03;;;10.55;100.00
21879;BME280;27908;42.708;23.278;2023-04-25T05:19:40;63692.47;;;10.63;100.00
21879;BME280;27908;42.708;23.278;2023-04-25T05:22:06;63695.16;;;10.75;100.00
21879;BME280;27908;42.708;23.278;2023-04-25T05:24:31;63756.00;;;10.92;100.00
21879;BME280;27908;42.708;23.278;2023-04-25T05:26:57;63803.75;;;11.21;100.00
21879;BME280;27908;42.708;23.278;2023-04-25T05:29:22;63781.34;;;11.24;100.00
21879;BME280;27908;42.708;23.278;2023-04-25T05:31:48;63782.72;;;11.10;100.00
21879;BME280;27908;42.708;23.278;2023-04-25T05:34:13;63787.91;;;11.18;100.00
21879;BME280;27908;42.708;23.278;2023-04-25T05:36:39;63832.59;;;11.43;100.00
21879;BME280;27908;42.708;23.278;2023-04-25T05:39:04;63822.41;;;11.46;100.00
21879;BME280;27908;42.708;23.278;2023-04-25T05:41:31;63868.03;;;11.63;100.00
21879;BME280;27908;42.708;23.278;2023-04-25T05:43:56;63902.41;;;11.78;100.00
21879;BME280;27908;42.708;23.278;2023-04-25T05:46:22;63854.03;;;11.91;100.00
21879;BME280;27908;42.708;23.278;2023-04-25T05:48:47;63881.06;;;11.87;100.00
21879;BME280;27908;42.708;23.278;2023-04-25T05:51:12;63920.97;;;11.96;100.00
21879;BME280;27908;42.708;23.278;2023-04-25T05:53:38;63972.00;;;11.89;100.00
21879;BME280;27908;42.708;23.278;2023-04-25T05:56:03;63867.31;;;11.94;100.00
21879;BME280;27908;42.708;23.278;2023-04-25T05:58:29;63858.66;;;11.95;100.00
21879;BME280;27908;42.708;23.278;2023-04-25T06:00:55;63923.34;;;12.23;100.00
21879;BME280;27908;42.708;23.278;2023-04-25T06:03:20;63946.88;;;12.28;100.00
21879;BME280;27908;42.708;23.278;2023-04-25T06:05:46;63925.88;;;12.23;100.00
21879;BME280;27908;42.708;23.278;2023-04-25T06:08:11;63862.72;;;11.94;100.00
21879;BME280;27908;42.708;23.278;2023-04-25T06:10:37;63873.50;;;11.97;100.00
21879;BME280;27908;42.708;23.278;2023-04-25T06:13:03;63897.09;;;12.07;100.00
21879;BME280;27908;42.708;23.278;2023-04-25T06:15:29;63913.50;;;12.11;100.00
21879;BME280;27908;42.708;23.278;2023-04-25T06:17:54;63939.03;;;12.11;100.00
21879;BME280;27908;42.708;23.278;2023-04-25T06:20:20;63890.50;;;12.11;100.00
21879;BME280;27908;42.708;23.278;2023-04-25T06:22:48;63982.16;;;12.28;100.00
21879;BME280;27908;42.708;23.278;2023-04-25T06:25:14;63950.00;;;12.34;100.00
21879;BME280;27908;42.708;23.278;2023-04-25T06:27:40;63994.06;;;12.42;100.00
21879;BME280;27908;42.708;23.278;2023-04-25T06:30:06;64003.50;;;12.65;100.00
21879;BME280;27908;42.708;23.278;2023-04-25T06:32:32;64041.59;;;12.84;100.00
21879;BME280;27908;42.708;23.278;2023-04-25T06:34:57;64048.91;;;12.99;100.00
21879;BME280;27908;42.708;23.278;2023-04-25T06:37:23;64110.53;;;13.16;100.00
21879;BME280;27908;42.708;23.278;2023-04-25T06:39:48;64070.13;;;13.19;100.00
21879;BME280;27908;42.708;23.278;2023-04-25T06:42:13;64127.78;;;13.50;100.00
21879;BME280;27908;42.708;23.278;2023-04-25T06:44:39;64183.31;;;13.68;100.00
21879;BME280;27908;42.708;23.278;2023-04-25T06:47:04;64140.38;;;13.79;100.00
21879;BME280;27908;42.708;23.278;2023-04-25T06:49:30;64251.41;;;14.06;100.00
21879;BME280;27908;42.708;23.278;2023-04-25T06:51:55;64227.25;;;14.00;100.00
21879;BME280;27908;42.708;23.278;2023-04-25T06:54:21;64203.28;;;14.12;100.00
21879;BME280;27908;42.708;23.278;2023-04-25T06:56:46;64221.75;;;14.15;100.00
21879;BME280;27908;42.708;23.278;2023-04-25T06:59:11;64245.34;;;14.15;100.00
21879;BME280;27908;42.708;23.278;2023-04-25T07:01:37;64226.94;;;14.20;100.00
21879;BME280;27908;42.708;23.278;2023-04-25T07:04:03;64222.25;;;14.13;100.00
21879;BME280;27908;42.708;23.278;2023-04-25T07:06:28;64195.81;;;13.85;100.00
21879;BME280;27908;42.708;23.278;2023-04-25T07:08:54;64180.50;;;13.92;100.00
21879;BME280;27908;42.708;23.278;2023-04-25T07:11:20;64187.03;;;13.82;100.00
21879;BME280;27908;42.708;23.278;2023-04-25T07:13:46;64188.16;;;13.90;100.00
21879;BME280;27908;42.708;23.278;2023-04-25T07:16:11;64195.63;;;13.70;100.00
21879;BME280;27908;42.708;23.278;2023-04-25T07:18:36;64203.41;;;13.80;100.00
21879;BME280;27908;42.708;23.278;2023-04-25T07:21:02;64175.81;;;13.86;100.00
21879;BME280;27908;42.708;23.278;2023-04-25T07:23:27;64207.28;;;14.03;100.00
21879;BME280;27908;42.708;23.278;2023-04-25T07:25:53;64204.31;;;14.15;100.00
21879;BME280;27908;42.708;23.278;2023-04-25T07:28:18;64200.72;;;14.12;100.00
21879;BME280;27908;42.708;23.278;2023-04-25T07:30:44;64276.41;;;14.40;100.00
21879;BME280;27908;42.708;23.278;2023-04-25T07:33:09;64294.56;;;14.62;100.00
21879;BME280;27908;42.708;23.278;2023-04-25T07:35:35;64303.69;;;14.49;100.00
21879;BME280;27908;42.708;23.278;2023-04-25T07:38:02;64271.22;;;14.37;100.00
21879;BME280;27908;42.708;23.278;2023-04-25T07:40:27;64258.44;;;14.40;100.00
21879;BME280;27908;42.708;23.278;2023-04-25T07:42:52;64319.06;;;14.49;100.00
21879;BME280;27908;42.708;23.278;2023-04-25T07:45:18;64238.91;;;14.36;100.00
21879;BME280;27908;42.708;23.278;2023-04-25T07:47:43;64268.91;;;14.59;100.00
21879;BME280;27908;42.708;23.278;2023-04-25T07:50:09;64357.09;;;14.99;100.00
21879;BME280;27908;42.708;23.278;2023-04-25T07:52:36;64385.50;;;15.14;100.00
21879;BME280;27908;42.708;23.278;2023-04-25T07:55:01;64339.47;;;14.85;100.00
21879;BME280;27908;42.708;23.278;2023-04-25T07:57:27;64366.53;;;15.16;100.00
21879;BME280;27908;42.708;23.278;2023-04-25T07:59:52;64360.28;;;15.10;100.00
21879;BME280;27908;42.708;23.278;2023-04-25T08:02:37;64364.66;;;14.87;100.00
21879;BME280;27908;42.708;23.278;2023-04-25T08:05:02;64326.59;;;14.80;100.00
21879;BME280;27908;42.708;23.278;2023-04-25T08:07:28;64366.88;;;15.01;100.00
21879;BME280;27908;42.708;23.278;2023-04-25T08:09:54;64326.38;;;15.09;100.00
21879;BME280;27908;42.708;23.278;2023-04-25T08:12:20;64467.66;;;15.56;97.99
21879;BME280;27908;42.708;23.278;2023-04-25T08:14:45;64472.63;;;15.87;96.21
21879;BME280;27908;42.708;23.278;2023-04-25T08:17:11;64555.63;;;16.07;96.13
21879;BME280;27908;42.708;23.278;2023-04-25T08:19:36;64615.19;;;16.39;99.86
21879;BME280;27908;42.708;23.278;2023-04-25T08:22:02;64630.41;;;16.66;94.26
21879;BME280;27908;42.708;23.278;2023-04-25T08:24:28;64618.25;;;16.35;93.05
21879;BME280;27908;42.708;23.278;2023-04-25T08:26:53;64569.22;;;16.23;93.86
21879;BME280;27908;42.708;23.278;2023-04-25T08:29:19;64471.75;;;15.55;98.25
21879;BME280;27908;42.708;23.278;2023-04-25T08:31:44;64389.00;;;15.05;100.00
21879;BME280;27908;42.708;23.278;2023-04-25T08:34:10;64326.69;;;14.88;100.00
21879;BME280;27908;42.708;23.278;2023-04-25T08:36:36;64260.53;;;14.44;100.00
21879;BME280;27908;42.708;23.278;2023-04-25T08:39:02;64157.13;;;13.63;100.00
21879;BME280;27908;42.708;23.278;2023-04-25T08:41:27;64165.97;;;13.76;100.00
21879;BME280;27908;42.708;23.278;2023-04-25T08:43:55;64164.88;;;13.70;100.00
21879;BME280;27908;42.708;23.278;2023-04-25T08:46:37;64152.44;;;13.56;100.00
21879;BME280;27908;42.708;23.278;2023-04-25T08:49:11;64169.59;;;13.77;100.00
21879;BME280;27908;42.708;23.278;2023-04-25T08:51:44;64216.31;;;13.85;100.00
21879;BME280;27908;42.708;23.278;2023-04-25T08:54:13;64263.25;;;14.10;100.00
21879;BME280;27908;42.708;23.278;2023-04-25T08:56:41;64289.81;;;14.48;100.00
21879;BME280;27908;42.708;23.278;2023-04-25T08:59:09;64272.56;;;14.65;100.00
21879;BME280;27908;42.708;23.278;2023-04-25T09:01:35;64384.28;;;14.98;100.00
21879;BME280;27908;42.708;23.278;2023-04-25T09:04:01;64453.59;;;15.40;100.00
21879;BME280;27908;42.708;23.278;2023-04-25T09:06:28;64425.44;;;15.47;100.00
21879;BME280;27908;42.708;23.278;2023-04-25T09:08:53;64491.81;;;15.57;100.00
21879;BME280;27908;42.708;23.278;2023-04-25T09:11:19;64595.25;;;16.08;100.00
21879;BME280;27908;42.708;23.278;2023-04-25T09:13:45;64601.22;;;16.31;100.00
21879;BME280;27908;42.708;23.278;2023-04-25T09:16:11;64603.44;;;16.48;99.42
21879;BME280;27908;42.708;23.278;2023-04-25T09:18:37;64567.66;;;16.24;99.32
21879;BME280;27908;42.708;23.278;2023-04-25T09:21:12;64645.22;;;16.56;96.07
21879;BME280;27908;42.708;23.278;2023-04-25T09:23:44;64705.75;;;16.79;94.57
21879;BME280;27908;42.708;23.278;2023-04-25T09:26:10;64719.09;;;17.16;91.02
21879;BME280;27908;42.708;23.278;2023-04-25T09:28:38;64826.69;;;17.49;93.90
21879;BME280;27908;42.708;23.278;2023-04-25T09:31:04;64908.31;;;18.02;90.77
21879;BME280;27908;42.708;23.278;2023-04-25T09:33:31;64935.31;;;18.13;87.78
21879;BME280;27908;42.708;23.278;2023-04-25T09:36:09;64955.56;;;18.25;72.65
21879;BME280;27908;42.708;23.278;2023-04-25T09:38:46;64983.69;;;18.42;71.18
21879;BME280;27908;42.708;23.278;2023-04-25T09:41:12;64995.19;;;18.52;69.74
21879;BME280;27908;42.708;23.278;2023-04-25T09:43:38;65028.69;;;18.89;84.40
21879;BME280;27908;42.708;23.278;2023-04-25T09:46:13;64968.69;;;18.40;83.68
21879;BME280;27908;42.708;23.278;2023-04-25T09:48:38;64918.72;;;17.68;81.21
21879;BME280;27908;42.708;23.278;2023-04-25T09:51:14;64832.22;;;17.38;85.30
21879;BME280;27908;42.708;23.278;2023-04-25T09:53:45;64747.38;;;17.13;87.70
21879;BME280;27908;42.708;23.278;2023-04-25T09:56:16;64738.00;;;17.07;84.46
21879;BME280;27908;42.708;23.278;2023-04-25T09:58:42;64750.53;;;17.19;86.25
21879;BME280;27908;42.708;23.278;2023-04-25T10:01:09;64771.94;;;17.42;82.80
21879;BME280;27908;42.708;23.278;2023-04-25T10:03:37;64868.22;;;17.72;83.67
21879;BME280;27908;42.708;23.278;2023-04-25T10:06:09;64864.78;;;17.85;79.47
21879;BME280;27908;42.708;23.278;2023-04-25T10:08:38;64881.47;;;18.01;78.56
21879;BME280;27908;42.708;23.278;2023-04-25T10:11:05;64870.53;;;17.91;70.19
21879;BME280;27908;42.708;23.278;2023-04-25T10:13:31;64868.91;;;17.84;78.11
21879;BME280;27908;42.708;23.278;2023-04-25T10:15:58;64888.72;;;18.03;77.72
21879;BME280;27908;42.708;23.278;2023-04-25T10:18:25;64945.69;;;18.18;74.33
21879;BME280;27908;42.708;23.278;2023-04-25T10:20:56;64944.88;;;18.37;74.04
21879;BME280;27908;42.708;23.278;2023-04-25T10:23:23;65052.16;;;18.26;58.71
21879;BME280;27908;42.708;23.278;2023-04-25T10:25:50;65008.09;;;18.52;61.67
21879;BME280;27908;42.708;23.278;2023-04-25T10:28:16;65000.31;;;18.50;61.85
21879;BME280;27908;42.708;23.278;2023-04-25T10:31:02;65002.63;;;18.30;58.45
21879;BME280;27908;42.708;23.278;2023-04-25T10:33:39;64737.34;;;16.94;66.39
21879;BME280;27908;42.708;23.278;2023-04-25T10:36:18;64652.44;;;16.55;72.73
21879;BME280;27908;42.708;23.278;2023-04-25T10:38:45;64537.06;;;16.02;75.24
21879;BME280;27908;42.708;23.278;2023-04-25T10:41:13;64546.25;;;15.96;80.46
21879;BME280;27908;42.708;23.278;2023-04-25T10:43:43;64545.72;;;15.96;81.63
21879;BME280;27908;42.708;23.278;2023-04-25T10:48:45;64529.78;;;15.95;85.22
21879;BME280;27908;42.708;23.278;2023-04-25T10:51:12;64561.13;;;15.93;84.76
21879;BME280;27908;42.708;23.278;2023-04-25T10:53:40;64624.94;;;16.37;82.17
21879;BME280;27908;42.708;23.278;2023-04-25T10:56:33;64711.84;;;16.73;73.48
21879;BME280;27908;42.708;23.278;2023-04-25T10:59:11;64724.59;;;17.04;75.66
21879;BME280;27908;42.708;23.278;2023-04-25T11:01:47;64791.41;;;17.31;65.34
21879;BME280;27908;42.708;23.278;2023-04-25T11:04:32;64825.38;;;17.70;71.21
21879;BME280;27908;42.708;23.278;2023-04-25T11:09:29;64786.97;;;17.48;63.09
21879;BME280;27908;42.708;23.278;2023-04-25T11:11:56;64800.50;;;17.59;65.54
21879;BME280;27908;42.708;23.278;2023-04-25T11:14:22;64745.06;;;17.36;60.93
21879;BME280;27908;42.708;23.278;2023-04-25T11:16:58;64815.34;;;17.48;63.10
21879;BME280;27908;42.708;23.278;2023-04-25T11:19:26;64789.31;;;17.29;63.76
21879;BME280;27908;42.708;23.278;2023-04-25T11:21:56;64742.50;;;16.94;61.65
21879;BME280;27908;42.708;23.278;2023-04-25T11:26:53;64707.88;;;16.83;64.68
21879;BME280;27908;42.708;23.278;2023-04-25T11:29:22;64665.25;;;16.50;66.18
21879;BME280;27908;42.708;23.278;2023-04-25T11:31:47;64598.78;;;16.43;70.54
21879;BME280;27908;42.708;23.278;2023-04-25T11:34:17;64602.06;;;16.17;72.74
21879;BME280;27908;42.708;23.278;2023-04-25T11:36:45;64550.34;;;15.95;73.92
21879;BME280;27908;42.708;23.278;2023-04-25T11:39:10;64416.88;;;15.17;75.01
21879;BME280;27908;42.708;23.278;2023-04-25T11:41:37;64339.41;;;14.78;82.99
21879;BME280;27908;42.708;23.278;2023-04-25T11:44:03;64322.78;;;14.62;84.30
21879;BME280;27908;42.708;23.278;2023-04-25T11:46:29;64298.41;;;14.36;85.47
21879;BME280;27908;42.708;23.278;2023-04-25T11:48:55;64315.06;;;14.59;90.51
21879;BME280;27908;42.708;23.278;2023-04-25T11:51:21;64354.31;;;14.80;84.30
21879;BME280;27908;42.708;23.278;2023-04-25T11:53:46;64370.41;;;14.95;88.67
21879;BME280;27908;42.708;23.278;2023-04-25T11:56:12;64480.56;;;15.61;87.02
21879;BME280;27908;42.708;23.278;2023-04-25T12:01:26;64826.25;;;17.56;80.78
21879;BME280;27908;42.708;23.278;2023-04-25T12:03:51;64912.91;;;17.97;77.03
21879;BME280;27908;42.708;23.278;2023-04-25T12:06:17;64915.53;;;18.02;74.29
21879;BME280;27908;42.708;23.278;2023-04-25T12:08:59;64931.56;;;18.05;64.53
21879;BME280;27908;42.708;23.278;2023-04-25T12:11:25;64973.50;;;18.13;67.13
21879;BME280;27908;42.708;23.278;2023-04-25T12:13:54;64846.50;;;17.68;62.74
21879;BME280;27908;42.708;23.278;2023-04-25T12:16:19;64843.41;;;17.68;68.56
21879;BME280;27908;42.708;23.278;2023-04-25T12:18:44;64823.41;;;17.78;66.38
21879;BME280;27908;42.708;23.278;2023-04-25T12:21:10;64939.16;;;17.92;67.81
21879;BME280;27908;42.708;23.278;2023-04-25T12:23:38;64849.91;;;17.52;66.44
21879;BME280;27908;42.708;23.278;2023-04-25T12:26:04;64406.19;;;15.27;84.03
21879;BME280;27908;42.708;23.278;2023-04-25T12:28:32;64276.81;;;14.33;100.00
21879;BME280;27908;42.708;23.278;2023-04-25T12:31:05;64123.50;;;13.31;100.00
21879;BME280;27908;42.708;23.278;2023-04-25T12:33:32;64049.69;;;12.78;100.00
21879;BME280;27908;42.708;23.278;2023-04-25T12:35:58;63963.25;;;12.29;100.00
21879;BME280;27908;42.708;23.278;2023-04-25T12:38:29;63983.75;;;12.34;100.00
21879;BME280;27908;42.708;23.278;2023-04-25T12:40:56;63951.13;;;12.42;100.00
21879;BME280;27908;42.708;23.278;2023-04-25T12:43:22;63964.41;;;12.40;100.00
21879;BME280;27908;42.708;23.278;2023-04-25T12:45:48;63977.09;;;12.33;100.00
21879;BME280;27908;42.708;23.278;2023-04-25T12:48:15;64011.97;;;12.44;100.00
21879;BME280;27908;42.708;23.278;2023-04-25T12:50:40;63998.88;;;12.63;100.00